sensor_id;sensor_type;location;lat;lon;timestamp;temperature;humidity
20744;DHT22;56303;52.160;-0.428;2023-11-21T00:01:26;12.90;99.90
20744;DHT22;56303;52.160;-0.428;2023-11-21T00:03:52;12.60;99.90
20744;DHT22;56303;52.160;-0.428;2023-11-21T00:06:22;12.70;99.90
20744;DHT22;56303;52.160;-0.428;2023-11-21T00:08:48;12.90;99.90
20744;DHT22;56303;52.160;-0.428;2023-11-21T00:11:15;12.70;99.90
20744;DHT22;56303;52.160;-0.428;2023-11-21T00:13:42;12.80;99.90
20744;DHT22;56303;52.160;-0.428;2023-11-21T00:16:10;12.80;99.90
20744;DHT22;56303;52.160;-0.428;2023-11-21T00:18:37;12.70;99.90
20744;DHT22;56303;52.160;-0.428;2023-11-21T00:21:04;12.60;99.90
20744;DHT22;56303;52.160;-0.428;2023-11-21T00:23:31;12.70;99.90
20744;DHT22;56303;52.160;-0.428;2023-11-21T00:25:57;12.80;99.90
20744;DHT22;56303;52.160;-0.428;2023-11-21T00:28:25;12.90;99.90
20744;DHT22;56303;52.160;-0.428;2023-11-21T00:30:52;12.90;99.90
20744;DHT22;56303;52.160;-0.428;2023-11-21T00:33:20;12.80;99.90
20744;DHT22;56303;52.160;-0.428;2023-11-21T00:35:47;12.70;99.90
20744;DHT22;56303;52.160;-0.428;2023-11-21T00:38:14;12.50;99.90
20744;DHT22;56303;52.160;-0.428;2023-11-21T00:40:41;12.70;99.90
20744;DHT22;56303;52.160;-0.428;2023-11-21T00:43:07;12.80;99.90
20744;DHT22;56303;52.160;-0.428;2023-11-21T00:45:34;12.80;99.90
20744;DHT22;56303;52.160;-0.428;2023-11-21T00:48:03;12.70;99.90
20744;DHT22;56303;52.160;-0.428;2023-11-21T00:50:31;12.70;99.90
20744;DHT22;56303;52.160;-0.428;2023-11-21T00:52:58;12.40;99.90
20744;DHT22;56303;52.160;-0.428;2023-11-21T00:55:25;12.30;99.90
20744;DHT22;56303;52.160;-0.428;2023-11-21T00:57:53;12.20;99.90
20744;DHT22;56303;52.160;-0.428;2023-11-21T01:00:20;12.50;99.90
20744;DHT22;56303;52.160;-0.428;2023-11-21T01:02:46;12.40;99.90
20744;DHT22;56303;52.160;-0.428;2023-11-21T01:05:15;12.70;99.90
20744;DHT22;56303;52.160;-0.428;2023-11-21T01:07:42;12.90;99.90
20744;DHT22;56303;52.160;-0.428;2023-11-21T01:10:09;12.80;99.90
20744;DHT22;56303;52.160;-0.428;2023-11-21T01:12:37;13.00;99.90
20744;DHT22;56303;52.160;-0.428;2023-11-21T01:15:05;13.20;99.90
20744;DHT22;56303;52.160;-0.428;2023-11-21T01:17:35;13.30;99.90
20744;DHT22;56303;52.160;-0.428;2023-11-21T01:20:03;13.00;99.90
20744;DHT22;56303;52.160;-0.428;2023-11-21T01:22:33;13.20;99.90
20744;DHT22;56303;52.160;-0.428;2023-11-21T01:25:00;13.00;99.90
20744;DHT22;56303;52.160;-0.428;2023-11-21T01:27:27;13.10;99.90
20744;DHT22;56303;52.160;-0.428;2023-11-21T01:29:53;12.90;99.90
20744;DHT22;56303;52.160;-0.428;2023-11-21T01:32:20;12.90;99.90
20744;DHT22;56303;52.160;-0.428;2023-11-21T01:34:48;13.10;99.90
20744;DHT22;56303;52.160;-0.428;2023-11-21T01:37:14;13.10;99.90
20744;DHT22;56303;52.160;-0.428;2023-11-21T01:39:41;12.80;99.90
20744;DHT22;56303;52.160;-0.428;2023-11-21T01:42:08;12.80;99.90
20744;DHT22;56303;52.160;-0.428;2023-11-21T01:44:35;13.20;99.90
20744;DHT22;56303;52.160;-0.428;2023-11-21T01:47:02;12.60;99.90
20744;DHT22;56303;52.160;-0.428;2023-11-21T01:49:32;12.60;99.90
20744;DHT22;56303;52.160;-0.428;2023-11-21T01:52:00;12.90;99.90
20744;DHT22;56303;52.160;-0.428;2023-11-21T01:54:28;12.70;99.90
20744;DHT22;56303;52.160;-0.428;2023-11-21T01:57:02;12.90;99.90
20744;DHT22;56303;52.160;-0.428;2023-11-21T01:59:41;12.90;99.90
20744;DHT22;56303;52.160;-0.428;2023-11-21T02:02:08;12.90;99.90
20744;DHT22;56303;52.160;-0.428;2023-11-21T02:04:36;12.90;99.90
20744;DHT22;56303;52.160;-0.428;2023-11-21T02:07:03;12.70;99.90
20744;DHT22;56303;52.160;-0.428;2023-11-21T02:09:34;13.00;99.90
20744;DHT22;56303;52.160;-0.428;2023-11-21T02:12:01;12.30;99.90
20744;DHT22;56303;52.160;-0.428;2023-11-21T02:14:29;12.30;99.90
20744;DHT22;56303;52.160;-0.428;2023-11-21T02:16:57;12.30;99.90
20744;DHT22;56303;52.160;-0.428;2023-11-21T02:19:24;12.30;99.90
20744;DHT22;56303;52.160;-0.428;2023-11-21T02:21:57;12.20;99.90
20744;DHT22;56303;52.160;-0.428;2023-11-21T02:24:31;12.20;99.90
20744;DHT22;56303;52.160;-0.428;2023-11-21T02:26:58;12.20;99.90
20744;DHT22;56303;52.160;-0.428;2023-11-21T02:29:25;12.20;99.90
20744;DHT22;56303;52.160;-0.428;2023-11-21T02:31:55;12.00;99.90
20744;DHT22;56303;52.160;-0.428;2023-11-21T02:34:23;12.00;99.90
20744;DHT22;56303;52.160;-0.428;2023-11-21T02:36:52;12.00;99.90
20744;DHT22;56303;52.160;-0.428;2023-11-21T02:39:19;12.10;99.90
20744;DHT22;56303;52.160;-0.428;2023-11-21T02:41:49;12.10;99.90
20744;DHT22;56303;52.160;-0.428;2023-11-21T02:44:16;12.10;99.90
20744;DHT22;56303;52.160;-0.428;2023-11-21T02:46:42;11.90;99.90
20744;DHT22;56303;52.160;-0.428;2023-11-21T02:49:09;12.10;99.90
20744;DHT22;56303;52.160;-0.428;2023-11-21T02:51:39;11.00;99.90
20744;DHT22;56303;52.160;-0.428;2023-11-21T02:54:06;12.10;99.90
20744;DHT22;56303;52.160;-0.428;2023-11-21T02:56:34;12.10;99.90
20744;DHT22;56303;52.160;-0.428;2023-11-21T02:59:01;12.10;99.90
20744;DHT22;56303;52.160;-0.428;2023-11-21T03:01:28;11.90;99.90
20744;DHT22;56303;52.160;-0.428;2023-11-21T03:03:55;12.00;99.90
20744;DHT22;56303;52.160;-0.428;2023-11-21T03:06:23;11.90;99.90
20744;DHT22;56303;52.160;-0.428;2023-11-21T03:08:50;11.80;99.90
20744;DHT22;56303;52.160;-0.428;2023-11-21T03:11:17;12.00;99.90
20744;DHT22;56303;52.160;-0.428;2023-11-21T03:13:44;11.90;99.90
20744;DHT22;56303;52.160;-0.428;2023-11-21T03:16:12;12.40;99.90
20744;DHT22;56303;52.160;-0.428;2023-11-21T03:18:39;12.10;99.90
20744;DHT22;56303;52.160;-0.428;2023-11-21T03:21:06;12.00;99.90
20744;DHT22;56303;52.160;-0.428;2023-11-21T03:23:37;11.90;99.90
20744;DHT22;56303;52.160;-0.428;2023-11-21T03:26:04;11.90;99.90
20744;DHT22;56303;52.160;-0.428;2023-11-21T03:28:31;12.00;99.90
20744;DHT22;56303;52.160;-0.428;2023-11-21T03:30:58;11.80;99.90
20744;DHT22;56303;52.160;-0.428;2023-11-21T03:33:24;11.70;99.90
20744;DHT22;56303;52.160;-0.428;2023-11-21T03:35:51;12.10;99.90
20744;DHT22;56303;52.160;-0.428;2023-11-21T03:38:19;11.60;99.90
20744;DHT22;56303;52.160;-0.428;2023-11-21T03:40:47;11.70;99.90
20744;DHT22;56303;52.160;-0.428;2023-11-21T03:43:14;11.50;99.90
20744;DHT22;56303;52.160;-0.428;2023-11-21T03:45:41;11.60;99.90
20744;DHT22;56303;52.160;-0.428;2023-11-21T03:48:08;11.40;99.90
20744;DHT22;56303;52.160;-0.428;2023-11-21T03:50:35;11.50;99.90
20744;DHT22;56303;52.160;-0.428;2023-11-21T03:53:02;11.40;99.90
20744;DHT22;56303;52.160;-0.428;2023-11-21T03:55:30;11.50;99.90
20744;DHT22;56303;52.160;-0.428;2023-11-21T03:57:58;11.80;99.90
20744;DHT22;56303;52.160;-0.428;2023-11-21T04:00:25;11.60;99.90
20744;DHT22;56303;52.160;-0.428;2023-11-21T04:02:55;11.60;99.90
20744;DHT22;56303;52.160;-0.428;2023-11-21T04:05:23;11.50;99.90
20744;DHT22;56303;52.160;-0.428;2023-11-21T04:07:50;11.70;99.90
20744;DHT22;56303;52.160;-0.428;2023-11-21T04:10:18;11.60;99.90
20744;DHT22;56303;52.160;-0.428;2023-11-21T04:12:45;11.60;99.90
20744;DHT22;56303;52.160;-0.428;2023-11-21T04:15:12;11.70;99.90
20744;DHT22;56303;52.160;-0.428;2023-11-21T04:17:40;11.30;99.90
20744;DHT22;56303;52.160;-0.428;2023-11-21T04:20:08;12.00;99.90
20744;DHT22;56303;52.160;-0.428;2023-11-21T04:22:41;11.50;99.90
20744;DHT22;56303;52.160;-0.428;2023-11-21T04:25:09;11.50;99.90
20744;DHT22;56303;52.160;-0.428;2023-11-21T04:27:39;11.30;99.90
20744;DHT22;56303;52.160;-0.428;2023-11-21T04:30:07;11.30;99.90
20744;DHT22;56303;52.160;-0.428;2023-11-21T04:32:34;11.70;99.90
20744;DHT22;56303;52.160;-0.428;2023-11-21T04:35:01;11.60;99.90
20744;DHT22;56303;52.160;-0.428;2023-11-21T04:37:27;11.50;99.90
20744;DHT22;56303;52.160;-0.428;2023-11-21T04:39:54;11.50;99.90
20744;DHT22;56303;52.160;-0.428;2023-11-21T04:42:21;11.60;99.90
20744;DHT22;56303;52.160;-0.428;2023-11-21T04:44:49;11.40;99.90
20744;DHT22;56303;52.160;-0.428;2023-11-21T04:47:16;11.60;99.90
20744;DHT22;56303;52.160;-0.428;2023-11-21T04:49:43;11.40;99.90
20744;DHT22;56303;52.160;-0.428;2023-11-21T04:52:10;11.50;99.90
20744;DHT22;56303;52.160;-0.428;2023-11-21T04:54:37;11.60;99.90
20744;DHT22;56303;52.160;-0.428;2023-11-21T04:57:04;11.50;99.90
20744;DHT22;56303;52.160;-0.428;2023-11-21T04:59:31;11.60;99.90
20744;DHT22;56303;52.160;-0.428;2023-11-21T05:01:58;11.70;99.90
20744;DHT22;56303;52.160;-0.428;2023-11-21T05:04:26;11.40;99.90
20744;DHT22;56303;52.160;-0.428;2023-11-21T05:06:54;11.50;99.90
20744;DHT22;56303;52.160;-0.428;2023-11-21T05:09:21;11.50;99.90
20744;DHT22;56303;52.160;-0.428;2023-11-21T05:11:49;11.50;99.90
20744;DHT22;56303;52.160;-0.428;2023-11-21T05:14:15;11.60;99.90
20744;DHT22;56303;52.160;-0.428;2023-11-21T05:16:43;11.50;99.90
20744;DHT22;56303;52.160;-0.428;2023-11-21T05:19:10;11.60;99.90
20744;DHT22;56303;52.160;-0.428;2023-11-21T05:21:38;11.60;99.90
20744;DHT22;56303;52.160;-0.428;2023-11-21T05:24:05;11.60;99.90
20744;DHT22;56303;52.160;-0.428;2023-11-21T05:26:32;11.40;99.90
20744;DHT22;56303;52.160;-0.428;2023-11-21T05:28:59;11.30;99.90
20744;DHT22;56303;52.160;-0.428;2023-11-21T05:31:26;11.40;99.90
20744;DHT22;56303;52.160;-0.428;2023-11-21T05:33:53;11.20;99.90
20744;DHT22;56303;52.160;-0.428;2023-11-21T05:36:20;11.30;99.90
20744;DHT22;56303;52.160;-0.428;2023-11-21T05:38:47;11.10;99.90
20744;DHT22;56303;52.160;-0.428;2023-11-21T05:41:15;11.20;99.90
20744;DHT22;56303;52.160;-0.428;2023-11-21T05:43:42;11.70;99.90
20744;DHT22;56303;52.160;-0.428;2023-11-21T05:46:08;11.30;99.90
20744;DHT22;56303;52.160;-0.428;2023-11-21T05:48:35;11.40;99.90
20744;DHT22;56303;52.160;-0.428;2023-11-21T05:51:06;11.30;99.90
20744;DHT22;56303;52.160;-0.428;2023-11-21T05:53:35;11.10;99.90
20744;DHT22;56303;52.160;-0.428;2023-11-21T05:56:02;11.00;99.90
20744;DHT22;56303;52.160;-0.428;2023-11-21T05:58:30;11.10;99.90
20744;DHT22;56303;52.160;-0.428;2023-11-21T06:00:57;11.10;99.90
20744;DHT22;56303;52.160;-0.428;2023-11-21T06:03:24;11.00;99.90
20744;DHT22;56303;52.160;-0.428;2023-11-21T06:05:52;11.20;99.90
20744;DHT22;56303;52.160;-0.428;2023-11-21T06:08:19;11.20;99.90
20744;DHT22;56303;52.160;-0.428;2023-11-21T06:10:46;11.10;99.90
20744;DHT22;56303;52.160;-0.428;2023-11-21T06:13:16;11.20;99.90
20744;DHT22;56303;52.160;-0.428;2023-11-21T06:15:43;11.30;99.90
20744;DHT22;56303;52.160;-0.428;2023-11-21T06:18:09;11.20;99.90
20744;DHT22;56303;52.160;-0.428;2023-11-21T06:20:41;11.10;99.90
20744;DHT22;56303;52.160;-0.428;2023-11-21T06:23:07;11.30;99.90
20744;DHT22;56303;52.160;-0.428;2023-11-21T06:25:36;11.50;99.90
20744;DHT22;56303;52.160;-0.428;2023-11-21T06:28:03;11.70;99.90
20744;DHT22;56303;52.160;-0.428;2023-11-21T06:30:30;11.40;99.90
20744;DHT22;56303;52.160;-0.428;2023-11-21T06:32:57;11.40;99.90
20744;DHT22;56303;52.160;-0.428;2023-11-21T06:35:26;11.70;99.90
20744;DHT22;56303;52.160;-0.428;2023-11-21T06:37:56;11.60;99.90
20744;DHT22;56303;52.160;-0.428;2023-11-21T06:40:24;11.60;99.90
20744;DHT22;56303;52.160;-0.428;2023-11-21T06:42:51;11.20;99.90
20744;DHT22;56303;52.160;-0.428;2023-11-21T06:45:19;11.60;99.90
20744;DHT22;56303;52.160;-0.428;2023-11-21T06:47:47;11.70;99.90
20744;DHT22;56303;52.160;-0.428;2023-11-21T06:50:14;11.60;99.90
20744;DHT22;56303;52.160;-0.428;2023-11-21T06:52:41;11.60;99.90
20744;DHT22;56303;52.160;-0.428;2023-11-21T06:55:08;11.30;99.90
20744;DHT22;56303;52.160;-0.428;2023-11-21T06:57:36;11.30;99.90
20744;DHT22;56303;52.160;-0.428;2023-11-21T07:00:03;11.20;99.90
20744;DHT22;56303;52.160;-0.428;2023-11-21T07:02:30;11.20;99.90
20744;DHT22;56303;52.160;-0.428;2023-11-21T07:04:57;11.30;99.90
20744;DHT22;56303;52.160;-0.428;2023-11-21T07:07:24;11.30;99.90
20744;DHT22;56303;52.160;-0.428;2023-11-21T07:09:51;11.40;99.90
20744;DHT22;56303;52.160;-0.428;2023-11-21T07:12:18;10.50;99.90
20744;DHT22;56303;52.160;-0.428;2023-11-21T07:14:45;11.30;99.90
20744;DHT22;56303;52.160;-0.428;2023-11-21T07:17:12;11.10;99.90
20744;DHT22;56303;52.160;-0.428;2023-11-21T07:19:39;11.30;99.90
20744;DHT22;56303;52.160;-0.428;2023-11-21T07:22:06;11.40;99.90
20744;DHT22;56303;52.160;-0.428;2023-11-21T07:24:33;11.60;99.90
20744;DHT22;56303;52.160;-0.428;2023-11-21T07:27:00;11.30;99.90
20744;DHT22;56303;52.160;-0.428;2023-11-21T07:29:27;11.10;99.90
20744;DHT22;56303;52.160;-0.428;2023-11-21T07:31:56;10.90;99.90
20744;DHT22;56303;52.160;-0.428;2023-11-21T07:34:23;11.30;99.90
20744;DHT22;56303;52.160;-0.428;2023-11-21T07:36:50;11.40;99.90
20744;DHT22;56303;52.160;-0.428;2023-11-21T07:39:17;11.30;99.90
20744;DHT22;56303;52.160;-0.428;2023-11-21T07:41:44;11.30;99.90
20744;DHT22;56303;52.160;-0.428;2023-11-21T07:44:16;11.50;99.90
20744;DHT22;56303;52.160;-0.428;2023-11-21T07:46:47;11.50;99.90
20744;DHT22;56303;52.160;-0.428;2023-11-21T07:49:18;11.50;99.90
20744;DHT22;56303;52.160;-0.428;2023-11-21T07:51:47;11.30;99.90
20744;DHT22;56303;52.160;-0.428;2023-11-21T07:54:15;10.60;99.90
20744;DHT22;56303;52.160;-0.428;2023-11-21T07:56:42;11.30;99.90
20744;DHT22;56303;52.160;-0.428;2023-11-21T07:59:09;11.50;99.90
20744;DHT22;56303;52.160;-0.428;2023-11-21T08:01:36;11.30;99.90
20744;DHT22;56303;52.160;-0.428;2023-11-21T08:04:03;11.60;99.90
20744;DHT22;56303;52.160;-0.428;2023-11-21T08:06:31;11.70;99.90
20744;DHT22;56303;52.160;-0.428;2023-11-21T08:08:59;11.60;99.90
20744;DHT22;56303;52.160;-0.428;2023-11-21T08:11:26;11.80;99.90
20744;DHT22;56303;52.160;-0.428;2023-11-21T08:13:55;11.30;99.90
20744;DHT22;56303;52.160;-0.428;2023-11-21T08:16:23;11.20;99.90
20744;DHT22;56303;52.160;-0.428;2023-11-21T08:18:51;11.40;99.90
20744;DHT22;56303;52.160;-0.428;2023-11-21T08:21:18;11.30;99.90
20744;DHT22;56303;52.160;-0.428;2023-11-21T08:23:45;11.40;99.90
20744;DHT22;56303;52.160;-0.428;2023-11-21T08:26:16;11.60;99.90
20744;DHT22;56303;52.160;-0.428;2023-11-21T08:28:43;11.70;99.90
20744;DHT22;56303;52.160;-0.428;2023-11-21T08:31:10;11.60;99.90
20744;DHT22;56303;52.160;-0.428;2023-11-21T08:33:39;11.50;99.90
20744;DHT22;56303;52.160;-0.428;2023-11-21T08:36:08;11.40;99.90
20744;DHT22;56303;52.160;-0.428;2023-11-21T08:38:35;11.50;99.90
20744;DHT22;56303;52.160;-0.428;2023-11-21T08:41:06;11.40;99.90
20744;DHT22;56303;52.160;-0.428;2023-11-21T08:43:36;11.60;99.90
20744;DHT22;56303;52.160;-0.428;2023-11-21T08:46:07;11.70;99.90
20744;DHT22;56303;52.160;-0.428;2023-11-21T08:48:36;11.90;99.90
20744;DHT22;56303;52.160;-0.428;2023-11-21T08:51:04;11.80;99.90
20744;DHT22;56303;52.160;-0.428;2023-11-21T08:53:31;11.90;99.90
20744;DHT22;56303;52.160;-0.428;2023-11-21T08:55:58;12.00;99.90
20744;DHT22;56303;52.160;-0.428;2023-11-21T08:58:25;11.80;99.90
20744;DHT22;56303;52.160;-0.428;2023-11-21T09:00:52;12.00;99.90
20744;DHT22;56303;52.160;-0.428;2023-11-21T09:03:19;12.20;99.90
20744;DHT22;56303;52.160;-0.428;2023-11-21T09:05:46;12.10;99.90
20744;DHT22;56303;52.160;-0.428;2023-11-21T09:08:13;12.20;99.90
20744;DHT22;56303;52.160;-0.428;2023-11-21T09:10:40;12.00;99.90
20744;DHT22;56303;52.160;-0.428;2023-11-21T09:13:08;12.00;99.90
20744;DHT22;56303;52.160;-0.428;2023-11-21T09:15:37;12.00;99.90
20744;DHT22;56303;52.160;-0.428;2023-11-21T09:18:04;11.50;99.90
20744;DHT22;56303;52.160;-0.428;2023-11-21T09:20:31;11.70;99.90
20744;DHT22;56303;52.160;-0.428;2023-11-21T09:22:58;11.90;99.90
20744;DHT22;56303;52.160;-0.428;2023-11-21T09:25:25;11.40;99.90
20744;DHT22;56303;52.160;-0.428;2023-11-21T09:27:53;11.50;99.90
20744;DHT22;56303;52.160;-0.428;2023-11-21T09:30:20;11.20;99.90
20744;DHT22;56303;52.160;-0.428;2023-11-21T09:32:47;11.70;99.90
20744;DHT22;56303;52.160;-0.428;2023-11-21T09:35:14;11.70;99.90
20744;DHT22;56303;52.160;-0.428;2023-11-21T09:37:43;11.90;99.90
20744;DHT22;56303;52.160;-0.428;2023-11-21T09:40:21;12.00;99.90
20744;DHT22;56303;52.160;-0.428;2023-11-21T09:45:32;12.00;99.90
20744;DHT22;56303;52.160;-0.428;2023-11-21T09:48:01;12.00;99.90
20744;DHT22;56303;52.160;-0.428;2023-11-21T09:50:29;12.00;99.90
20744;DHT22;56303;52.160;-0.428;2023-11-21T09:53:20;11.90;99.90
20744;DHT22;56303;52.160;-0.428;2023-11-21T09:55:59;12.10;99.90
20744;DHT22;56303;52.160;-0.428;2023-11-21T09:58:29;12.10;99.90
20744;DHT22;56303;52.160;-0.428;2023-11-21T10:00:59;12.00;99.90
20744;DHT22;56303;52.160;-0.428;2023-11-21T10:03:29;12.00;99.90
20744;DHT22;56303;52.160;-0.428;2023-11-21T10:05:58;11.80;99.90
20744;DHT22;56303;52.160;-0.428;2023-11-21T10:08:28;11.90;99.90
20744;DHT22;56303;52.160;-0.428;2023-11-21T10:11:14;11.70;99.90
20744;DHT22;56303;52.160;-0.428;2023-11-21T10:13:41;11.60;99.90
20744;DHT22;56303;52.160;-0.428;2023-11-21T10:16:10;11.70;99.90
20744;DHT22;56303;52.160;-0.428;2023-11-21T10:18:39;11.50;99.90
20744;DHT22;56303;52.160;-0.428;2023-11-21T10:21:07;11.20;99.90
20744;DHT22;56303;52.160;-0.428;2023-11-21T10:23:35;11.30;99.90
20744;DHT22;56303;52.160;-0.428;2023-11-21T10:26:03;11.30;99.90
20744;DHT22;56303;52.160;-0.428;2023-11-21T10:28:58;11.00;99.90
20744;DHT22;56303;52.160;-0.428;2023-11-21T10:31:29;10.80;99.90
20744;DHT22;56303;52.160;-0.428;2023-11-21T10:34:20;10.90;99.90
20744;DHT22;56303;52.160;-0.428;2023-11-21T10:36:48;10.80;99.90
20744;DHT22;56303;52.160;-0.428;2023-11-21T10:39:21;11.00;99.90
20744;DHT22;56303;52.160;-0.428;2023-11-21T10:41:50;11.00;99.90
20744;DHT22;56303;52.160;-0.428;2023-11-21T10:44:18;10.90;99.90
20744;DHT22;56303;52.160;-0.428;2023-11-21T10:46:50;11.00;99.90
20744;DHT22;56303;52.160;-0.428;2023-11-21T10:49:20;11.20;99.90
20744;DHT22;56303;52.160;-0.428;2023-11-21T10:51:53;11.20;99.90
20744;DHT22;56303;52.160;-0.428;2023-11-21T10:54:22;11.10;99.90
20744;DHT22;56303;52.160;-0.428;2023-11-21T10:56:56;10.60;99.90
20744;DHT22;56303;52.160;-0.428;2023-11-21T10:59:24;10.80;99.90
20744;DHT22;56303;52.160;-0.428;2023-11-21T11:01:53;10.80;99.90
20744;DHT22;56303;52.160;-0.428;2023-11-21T11:04:22;10.60;99.90
20744;DHT22;56303;52.160;-0.428;2023-11-21T11:06:57;11.20;99.90
20744;DHT22;56303;52.160;-0.428;2023-11-21T11:09:31;10.60;99.90
20744;DHT22;56303;52.160;-0.428;2023-11-21T11:12:02;9.80;99.90
20744;DHT22;56303;52.160;-0.428;2023-11-21T11:14:31;10.40;99.90
20744;DHT22;56303;52.160;-0.428;2023-11-21T11:16:59;10.60;99.90
20744;DHT22;56303;52.160;-0.428;2023-11-21T11:19:28;10.60;99.90
20744;DHT22;56303;52.160;-0.428;2023-11-21T11:22:07;10.50;99.90
20744;DHT22;56303;52.160;-0.428;2023-11-21T11:25:03;10.60;99.90
20744;DHT22;56303;52.160;-0.428;2023-11-21T11:27:57;10.70;99.90
20744;DHT22;56303;52.160;-0.428;2023-11-21T11:33:39;10.60;99.90
20744;DHT22;56303;52.160;-0.428;2023-11-21T11:38:46;10.40;99.90
20744;DHT22;56303;52.160;-0.428;2023-11-21T11:41:26;10.50;99.90
20744;DHT22;56303;52.160;-0.428;2023-11-21T11:43:54;10.20;99.90
20744;DHT22;56303;52.160;-0.428;2023-11-21T11:46:43;10.30;99.90
20744;DHT22;56303;52.160;-0.428;2023-11-21T11:49:29;10.30;99.90
20744;DHT22;56303;52.160;-0.428;2023-11-21T11:52:35;10.20;99.90
20744;DHT22;56303;52.160;-0.428;2023-11-21T11:55:03;10.10;99.90
20744;DHT22;56303;52.160;-0.428;2023-11-21T11:57:33;10.10;99.90
20744;DHT22;56303;52.160;-0.428;2023-11-21T12:00:11;10.10;99.90
20744;DHT22;56303;52.160;-0.428;2023-11-21T12:02:47;10.00;99.90
20744;DHT22;56303;52.160;-0.428;2023-11-21T12:05:17;10.10;99.90
20744;DHT22;56303;52.160;-0.428;2023-11-21T12:07:56;10.00;99.90
20744;DHT22;56303;52.160;-0.428;2023-11-21T12:10:25;9.90;99.90
20744;DHT22;56303;52.160;-0.428;2023-11-21T12:12:54;10.10;99.90
20744;DHT22;56303;52.160;-0.428;2023-11-21T12:15:22;10.00;99.90
20744;DHT22;56303;52.160;-0.428;2023-11-21T12:17:49;10.10;99.90
20744;DHT22;56303;52.160;-0.428;2023-11-21T12:20:23;10.30;99.90
20744;DHT22;56303;52.160;-0.428;2023-11-21T12:22:52;11.10;99.90
20744;DHT22;56303;52.160;-0.428;2023-11-21T12:25:24;10.20;99.90
20744;DHT22;56303;52.160;-0.428;2023-11-21T12:27:52;10.30;99.90
20744;DHT22;56303;52.160;-0.428;2023-11-21T12:30:26;10.10;99.90
20744;DHT22;56303;52.160;-0.428;2023-11-21T12:32:55;10.20;99.90
20744;DHT22;56303;52.160;-0.428;2023-11-21T12:35:24;10.10;99.90
20744;DHT22;56303;52.160;-0.428;2023-11-21T12:37:52;10.30;99.90
20744;DHT22;56303;52.160;-0.428;2023-11-21T12:40:19;10.30;99.90
20744;DHT22;56303;52.160;-0.428;2023-11-21T12:42:47;10.30;99.90
20744;DHT22;56303;52.160;-0.428;2023-11-21T12:45:26;10.30;99.90
20744;DHT22;56303;52.160;-0.428;2023-11-21T12:50:29;10.20;99.90
20744;DHT22;56303;52.160;-0.428;2023-11-21T12:53:00;10.30;99.90
20744;DHT22;56303;52.160;-0.428;2023-11-21T12:55:33;10.40;99.90
20744;DHT22;56303;52.160;-0.428;2023-11-21T12:58:06;10.40;99.90
20744;DHT22;56303;52.160;-0.428;2023-11-21T13:00:44;10.50;99.90
20744;DHT22;56303;52.160;-0.428;2023-11-21T13:03:12;10.50;99.90
20744;DHT22;56303;52.160;-0.428;2023-11-21T13:05:45;10.70;99.90
20744;DHT22;56303;52.160;-0.428;2023-11-21T13:08:15;10.70;99.90
20744;DHT22;56303;52.160;-0.428;2023-11-21T13:10:49;10.90;99.90
20744;DHT22;56303;52.160;-0.428;2023-11-21T13:13:17;10.70;99.90
20744;DHT22;56303;52.160;-0.428;2023-11-21T13:15:58;11.00;99.90
20744;DHT22;56303;52.160;-0.428;2023-11-21T13:18:31;11.70;99.90
20744;DHT22;56303;52.160;-0.428;2023-11-21T13:21:01;11.00;99.90
20744;DHT22;56303;52.160;-0.428;2023-11-21T13:23:34;10.90;99.90
20744;DHT22;56303;52.160;-0.428;2023-11-21T13:26:00;11.20;99.90
20744;DHT22;56303;52.160;-0.428;2023-11-21T13:28:33;11.00;99.90
20744;DHT22;56303;52.160;-0.428;2023-11-21T13:31:02;10.80;99.90
20744;DHT22;56303;52.160;-0.428;2023-11-21T13:33:37;11.00;99.90
20744;DHT22;56303;52.160;-0.428;2023-11-21T13:36:06;10.80;99.90
20744;DHT22;56303;52.160;-0.428;2023-11-21T13:38:37;10.60;99.90
20744;DHT22;56303;52.160;-0.428;2023-11-21T13:41:09;10.80;99.90
20744;DHT22;56303;52.160;-0.428;2023-11-21T13:43:39;10.10;99.90
20744;DHT22;56303;52.160;-0.428;2023-11-21T13:46:06;10.60;99.90
20744;DHT22;56303;52.160;-0.428;2023-11-21T13:48:45;10.00;99.90
20744;DHT22;56303;52.160;-0.428;2023-11-21T13:51:22;10.10;99.90
20744;DHT22;56303;52.160;-0.428;2023-11-21T13:53:57;10.30;99.90
20744;DHT22;56303;52.160;-0.428;2023-11-21T13:56:25;10.30;99.90
20744;DHT22;56303;52.160;-0.428;2023-11-21T13:58:55;10.20;99.90
20744;DHT22;56303;52.160;-0.428;2023-11-21T14:01:26;10.20;99.90
20744;DHT22;56303;52.160;-0.428;2023-11-21T14:04:01;10.20;99.90
20744;DHT22;56303;52.160;-0.428;2023-11-21T14:06:49;10.30;99.90
20744;DHT22;56303;52.160;-0.428;2023-11-21T14:09:19;9.50;99.90
20744;DHT22;56303;52.160;-0.428;2023-11-21T14:11:54;10.30;99.90
20744;DHT22;56303;52.160;-0.428;2023-11-21T14:14:25;10.40;99.90
20744;DHT22;56303;52.160;-0.428;2023-11-21T14:16:52;10.60;99.90
20744;DHT22;56303;52.160;-0.428;2023-11-21T14:19:19;10.60;99.90
20744;DHT22;56303;52.160;-0.428;2023-11-21T14:21:47;10.90;99.90
20744;DHT22;56303;52.160;-0.428;2023-11-21T14:24:15;11.60;99.90
20744;DHT22;56303;52.160;-0.428;2023-11-21T14:26:46;12.20;99.90
20744;DHT22;56303;52.160;-0.428;2023-11-21T14:29:14;13.10;99.90
20744;DHT22;56303;52.160;-0.428;2023-11-21T14:31:44;12.70;99.90
20744;DHT22;56303;52.160;-0.428;2023-11-21T14:34:11;12.70;99.90
20744;DHT22;56303;52.160;-0.428;2023-11-21T14:36:39;12.70;99.90
20744;DHT22;56303;52.160;-0.428;2023-11-21T14:39:09;12.50;99.90
20744;DHT22;56303;52.160;-0.428;2023-11-21T14:41:48;12.80;99.90
20744;DHT22;56303;52.160;-0.428;2023-11-21T14:44:15;13.40;99.90
20744;DHT22;56303;52.160;-0.428;2023-11-21T14:46:42;14.00;99.90
20744;DHT22;56303;52.160;-0.428;2023-11-21T14:49:14;13.60;99.90
20744;DHT22;56303;52.160;-0.428;2023-11-21T14:51:48;13.60;99.90
20744;DHT22;56303;52.160;-0.428;2023-11-21T14:54:31;13.90;99.90
20744;DHT22;56303;52.160;-0.428;2023-11-21T14:57:09;14.20;99.90
20744;DHT22;56303;52.160;-0.428;2023-11-21T14:59:48;14.60;99.90
20744;DHT22;56303;52.160;-0.428;2023-11-21T15:02:19;13.90;99.90
20744;DHT22;56303;52.160;-0.428;2023-11-21T15:05:10;12.60;99.90
20744;DHT22;56303;52.160;-0.428;2023-11-21T15:07:44;11.70;99.90
20744;DHT22;56303;52.160;-0.428;2023-11-21T15:10:12;10.80;99.90
20744;DHT22;56303;52.160;-0.428;2023-11-21T15:12:43;10.80;99.90
20744;DHT22;56303;52.160;-0.428;2023-11-21T15:15:11;10.60;99.90
20744;DHT22;56303;52.160;-0.428;2023-11-21T15:17:41;10.60;99.90
20744;DHT22;56303;52.160;-0.428;2023-11-21T15:20:11;10.60;99.90
20744;DHT22;56303;52.160;-0.428;2023-11-21T15:22:46;10.70;99.90
20744;DHT22;56303;52.160;-0.428;2023-11-21T15:25:13;10.70;99.90
20744;DHT22;56303;52.160;-0.428;2023-11-21T15:27:40;10.60;99.90
20744;DHT22;56303;52.160;-0.428;2023-11-21T15:30:08;10.60;99.90
20744;DHT22;56303;52.160;-0.428;2023-11-21T15:32:35;10.50;99.90
20744;DHT22;56303;52.160;-0.428;2023-11-21T15:35:02;10.60;99.90
20744;DHT22;56303;52.160;-0.428;2023-11-21T15:37:29;10.90;99.90
20744;DHT22;56303;52.160;-0.428;2023-11-21T15:39:56;11.00;99.90